Time;durP1;ratioP1;P1;durP2;ratioP2;P2;SDS_P1;SDS_P2;PMS_P1;PMS_P2;Temp;Humidity;BMP_temperature;BMP_pressure;BME280_temperature;BME280_humidity;BME280_pressure;Samples;Min_cycle;Max_cycle;Signal;HPM_P1;HPM_P2
2024/03/13 00:02:48;;;;;;;19.30;12.30;;;;;;;;;;103451;1294;545029;-71
2024/03/13 00:06:23;;;;;;;20.40;12.80;;;;;;;;;;103854;1291;545007;-73
2024/03/13 00:10:01;;;;;;;22.70;12.40;;;;;;;;;;103799;1291;545612;-73
2024/03/13 00:13:34;;;;;;;17.00;11.70;;;;;;;;;;103945;1289;545048;-72
2024/03/13 00:17:10;;;;;;;22.20;13.80;;;;;;;;;;103905;1291;545317;-72
2024/03/13 00:20:52;;;;;;;16.70;12.50;;;;;;;;;;103762;1292;544806;-72
2024/03/13 00:24:30;;;;;;;20.20;13.50;;;;;;;;;;103747;1292;545722;-71
2024/03/13 00:28:08;;;;;;;17.20;12.20;;;;;;;;;;103756;1292;545052;-72
2024/03/13 00:31:45;;;;;;;21.10;12.80;;;;;;;;;;103738;1292;545534;-72
2024/03/13 00:35:23;;;;;;;45.20;21.40;;;;;;;;;;103814;1289;545792;-72
2024/03/13 00:39:19;;;;;;;29.00;19.20;;;;;;;;;;103747;1295;544950;-72
2024/03/13 00:42:37;;;;;;;27.30;20.70;;;;;;;;;;103797;1296;544882;-71
2024/03/13 00:46:17;;;;;;;32.40;23.20;;;;;;;;;;103615;1291;545172;-71
2024/03/13 00:49:52;;;;;;;24.00;15.80;;;;;;;;;;103740;1294;544976;-70
2024/03/13 00:53:29;;;;;;;20.50;14.30;;;;;;;;;;104096;1289;545527;-72
2024/03/13 00:57:07;;;;;;;21.10;13.90;;;;;;;;;;103780;1289;544888;-73
2024/03/13 01:00:52;;;;;;;21.70;14.90;;;;;;;;;;103703;1292;547839;-72
2024/03/13 01:04:55;;;;;;;;;;;;;;;;;;;;;
2024/03/13 01:07:59;;;;;;;19.80;14.40;;;;;;;;;;103744;1291;545050;-72
2024/03/13 01:11:34;;;;;;;20.10;14.20;;;;;;;;;;103823;1292;545041;-72
2024/03/13 01:15:17;;;;;;;18.10;13.70;;;;;;;;;;103635;1290;544764;-72
2024/03/13 01:18:52;;;;;;;21.10;15.20;;;;;;;;;;103705;1292;545726;-73
2024/03/13 01:22:31;;;;;;;25.40;17.80;;;;;;;;;;103755;1295;544866;-72
2024/03/13 01:26:09;;;;;;;22.40;15.30;;;;;;;;;;103690;1292;544809;-71
2024/03/13 01:29:50;;;;;;;21.10;15.20;;;;;;;;;;103630;1291;545664;-72
2024/03/13 01:33:22;;;;;;;20.60;14.40;;;;;;;;;;103552;1298;545707;-72
2024/03/13 01:55:13;;;;;;;20.30;14.50;;;;;;;;;;103771;1292;545882;-71
2024/03/13 01:58:51;;;;;;;20.00;14.60;;;;;;;;;;103729;1290;544982;-73
2024/03/13 02:02:27;;;;;;;19.20;14.40;;;;;;;;;;103776;1292;545555;-73
2024/03/13 02:06:01;;;;;;;21.40;15.60;;;;;;;;;;104065;1285;544939;-73
2024/03/13 02:09:45;;;;;;;24.40;15.50;;;;;;;;;;104303;1285;547995;-72
2024/03/13 02:13:15;;;;;;;21.70;15.80;;;;;;;;;;103728;1292;544740;-72
2024/03/13 02:16:52;;;;;;;22.60;15.60;;;;;;;;;;103820;1292;544891;-73
2024/03/13 02:20:33;;;;;;;23.20;16.20;;;;;;;;;;103713;1295;545939;-71
2024/03/13 02:24:08;;;;;;;20.10;15.00;;;;;;;;;;103544;1295;545003;-72
2024/03/13 02:27:51;;;;;;;23.80;16.70;;;;;;;;;;103851;1289;546419;-72
2024/03/13 02:31:17;;;;;;;23.20;16.60;;;;;;;;;;103939;1293;544860;-73
2024/03/13 02:35:03;;;;;;;24.10;16.70;;;;;;;;;;103578;1294;545783;-72
2024/03/13 02:38:36;;;;;;;23.30;17.40;;;;;;;;;;103778;1289;545575;-72
2024/03/13 02:42:15;;;;;;;23.80;16.70;;;;;;;;;;103755;1292;544764;-71
2024/03/13 02:45:52;;;;;;;22.20;16.70;;;;;;;;;;103847;1289;545145;-72
2024/03/13 02:49:28;;;;;;;24.50;17.00;;;;;;;;;;103804;1292;544795;-72
2024/03/13 02:53:07;;;;;;;23.40;17.00;;;;;;;;;;104563;1286;544900;-71
2024/03/13 02:56:45;;;;;;;19.70;14.90;;;;;;;;;;103732;1291;545290;-73
2024/03/13 03:00:21;;;;;;;22.40;16.40;;;;;;;;;;103748;1291;544995;-72
2024/03/13 03:03:59;;;;;;;23.50;17.50;;;;;;;;;;103831;1292;544836;-72
2024/03/13 03:07:36;;;;;;;22.60;16.70;;;;;;;;;;103748;1289;546107;-72
2024/03/13 03:11:12;;;;;;;23.50;17.30;;;;;;;;;;103683;1291;544794;-72
2024/03/13 03:14:46;;;;;;;24.10;17.00;;;;;;;;;;103971;1292;544946;-71
2024/03/13 03:18:27;;;;;;;23.40;16.70;;;;;;;;;;103857;1289;545004;-73
2024/03/13 03:22:09;;;;;;;23.80;16.70;;;;;;;;;;103748;1289;544865;-71
2024/03/13 03:25:44;;;;;;;26.30;18.00;;;;;;;;;;103700;1294;545766;-72
2024/03/13 03:29:21;;;;;;;23.60;17.50;;;;;;;;;;103784;1290;544807;-72
2024/03/13 03:32:58;;;;;;;25.00;17.60;;;;;;;;;;103815;1289;545053;-72
2024/03/13 03:36:35;;;;;;;24.00;17.40;;;;;;;;;;103629;1292;545035;-72
2024/03/13 03:40:18;;;;;;;25.40;18.40;;;;;;;;;;103779;1292;545564;-72
2024/03/13 03:43:50;;;;;;;24.20;17.70;;;;;;;;;;104061;1288;544975;-71
2024/03/13 03:47:26;;;;;;;23.70;17.40;;;;;;;;;;103845;1291;544862;-72
2024/03/13 03:51:05;;;;;;;23.30;16.80;;;;;;;;;;103803;1289;544872;-72
2024/03/13 03:54:41;;;;;;;24.00;17.20;;;;;;;;;;104008;1288;545634;-72
2024/03/13 03:58:21;;;;;;;24.60;18.00;;;;;;;;;;103885;1292;544885;-73
2024/03/13 04:01:57;;;;;;;24.50;17.40;;;;;;;;;;103739;1289;546231;-71
2024/03/13 04:05:35;;;;;;;24.00;17.50;;;;;;;;;;103788;1292;545153;-72
2024/03/13 04:09:15;;;;;;;26.40;17.40;;;;;;;;;;103451;1294;545676;-71
2024/03/13 04:12:50;;;;;;;24.80;17.40;;;;;;;;;;103807;1295;545016;-73
2024/03/13 04:16:27;;;;;;;26.20;18.10;;;;;;;;;;103855;1288;544801;-71
2024/03/13 04:20:12;;;;;;;23.60;17.20;;;;;;;;;;104223;1285;545092;-72
2024/03/13 04:23:49;;;;;;;25.20;18.70;;;;;;;;;;103768;1289;544754;-72
2024/03/13 04:27:20;;;;;;;26.10;18.80;;;;;;;;;;103596;1292;545259;-70
2024/03/13 04:30:57;;;;;;;27.20;19.70;;;;;;;;;;103866;1292;544722;-73
2024/03/13 04:34:40;;;;;;;26.70;19.00;;;;;;;;;;103670;1291;549308;-72
2024/03/13 04:38:15;;;;;;;24.20;17.90;;;;;;;;;;103739;1288;544892;-72
2024/03/13 04:41:49;;;;;;;27.10;19.10;;;;;;;;;;103572;1295;545061;-72
2024/03/13 04:45:27;;;;;;;25.90;18.90;;;;;;;;;;103446;1293;545061;-71
2024/03/13 04:49:04;;;;;;;24.60;19.00;;;;;;;;;;103770;1289;545043;-72
2024/03/13 04:52:42;;;;;;;26.40;18.70;;;;;;;;;;103719;1291;545888;-72
2024/03/13 04:56:19;;;;;;;25.80;18.70;;;;;;;;;;103541;1297;545549;-73
2024/03/13 04:59:53;;;;;;;25.90;19.50;;;;;;;;;;103865;1289;546201;-72
2024/03/13 05:03:35;;;;;;;29.60;20.60;;;;;;;;;;103742;1291;545546;-71
2024/03/13 05:07:18;;;;;;;28.20;20.80;;;;;;;;;;103630;1295;547813;-72
2024/03/13 05:10:52;;;;;;;28.40;20.00;;;;;;;;;;104138;1285;544988;-71
2024/03/13 05:14:26;;;;;;;28.90;21.20;;;;;;;;;;103472;1294;545600;-72
2024/03/13 05:18:04;;;;;;;28.90;20.70;;;;;;;;;;103544;1293;545109;-72
2024/03/13 05:21:41;;;;;;;28.80;20.90;;;;;;;;;;103562;1293;546212;-73
2024/03/13 05:25:22;;;;;;;28.50;20.20;;;;;;;;;;104471;1282;544723;-71
2024/03/13 05:29:09;;;;;;;;;;;;;;;;;;;;;
2024/03/13 05:32:34;;;;;;;29.20;21.40;;;;;;;;;;103779;1295;545053;-71
2024/03/13 05:36:11;;;;;;;28.70;20.20;;;;;;;;;;103782;1292;544713;-71
2024/03/13 05:39:58;;;;;;;29.80;20.00;;;;;;;;;;103728;1295;544829;-72
2024/03/13 05:43:22;;;;;;;30.20;21.00;;;;;;;;;;103868;1291;545353;-72
2024/03/13 05:47:04;;;;;;;28.90;21.00;;;;;;;;;;103529;1294;545761;-73
2024/03/13 05:50:42;;;;;;;26.30;19.40;;;;;;;;;;103748;1289;544999;-72
2024/03/13 05:54:15;;;;;;;28.40;21.00;;;;;;;;;;104244;1286;544795;-72
2024/03/13 05:57:56;;;;;;;28.40;20.30;;;;;;;;;;103734;1289;544851;-72
2024/03/13 06:01:47;;;;;;;;;;;;;;;;;;;;;
2024/03/13 06:05:14;;;;;;;28.10;20.00;;;;;;;;;;104164;1285;544897;-72
2024/03/13 06:08:49;;;;;;;27.20;19.70;;;;;;;;;;103821;1293;544794;-72
2024/03/13 06:12:30;;;;;;;28.30;20.20;;;;;;;;;;103819;1289;545904;-73
2024/03/13 06:16:06;;;;;;;29.40;20.10;;;;;;;;;;103841;1290;544989;-73
2024/03/13 06:19:43;;;;;;;30.10;21.10;;;;;;;;;;103755;1292;545435;-73
2024/03/13 06:23:26;;;;;;;29.30;20.80;;;;;;;;;;103532;1294;548128;-72
2024/03/13 06:27:00;;;;;;;29.80;20.60;;;;;;;;;;103853;1295;545425;-71
2024/03/13 06:30:31;;;;;;;28.10;21.30;;;;;;;;;;103859;1292;545284;-72
2024/03/13 06:34:10;;;;;;;29.30;20.00;;;;;;;;;;103787;1289;544916;-72
2024/03/13 06:37:48;;;;;;;29.30;20.50;;;;;;;;;;103750;1291;545679;-71
2024/03/13 06:41:25;;;;;;;26.70;19.20;;;;;;;;;;104695;1284;545405;-72
2024/03/13 06:45:04;;;;;;;29.00;20.60;;;;;;;;;;104172;1285;544988;-71
2024/03/13 06:48:40;;;;;;;28.60;21.10;;;;;;;;;;103720;1289;545519;-72
2024/03/13 06:52:18;;;;;;;28.50;20.70;;;;;;;;;;103963;1292;544866;-71
2024/03/13 06:55:55;;;;;;;27.50;19.70;;;;;;;;;;104133;1285;545054;-73
2024/03/13 06:59:37;;;;;;;26.80;19.20;;;;;;;;;;103485;1295;544738;-72
2024/03/13 07:03:10;;;;;;;27.90;20.50;;;;;;;;;;103722;1292;544995;-71
2024/03/13 07:06:48;;;;;;;30.20;21.10;;;;;;;;;;103780;1291;545879;-72
2024/03/13 07:10:32;;;;;;;29.90;20.10;;;;;;;;;;103670;1291;545036;-71
2024/03/13 07:14:04;;;;;;;28.50;19.20;;;;;;;;;;103863;1292;545035;-72
2024/03/13 07:17:42;;;;;;;28.10;19.30;;;;;;;;;;103821;1291;544900;-72
2024/03/13 07:21:21;;;;;;;29.20;19.40;;;;;;;;;;103712;1292;545794;-72
2024/03/13 07:24:56;;;;;;;26.70;19.80;;;;;;;;;;103884;1302;544773;-72
2024/03/13 07:28:33;;;;;;;30.20;20.20;;;;;;;;;;103764;1292;545070;-73
2024/03/13 07:32:10;;;;;;;27.80;20.70;;;;;;;;;;103827;1288;545222;-72
2024/03/13 07:35:48;;;;;;;29.30;21.60;;;;;;;;;;104379;1283;546088;-72
2024/03/13 07:39:31;;;;;;;30.00;19.30;;;;;;;;;;103698;1290;547991;-73
2024/03/13 07:43:12;;;;;;;26.50;18.90;;;;;;;;;;103808;1290;544990;-72
2024/03/13 07:46:40;;;;;;;27.60;19.80;;;;;;;;;;103589;1294;545723;-72
2024/03/13 07:50:24;;;;;;;28.90;20.90;;;;;;;;;;103705;1291;548138;-72
2024/03/13 07:53:55;;;;;;;27.20;19.90;;;;;;;;;;103910;1294;544926;-70
2024/03/13 07:57:33;;;;;;;27.30;18.60;;;;;;;;;;103708;1290;545439;-71
2024/03/13 08:01:10;;;;;;;26.30;18.20;;;;;;;;;;103829;1292;545650;-72
2024/03/13 08:04:47;;;;;;;27.50;19.80;;;;;;;;;;103800;1292;545727;-71
2024/03/13 08:08:25;;;;;;;27.20;20.00;;;;;;;;;;104258;1285;544942;-71
2024/03/13 08:12:03;;;;;;;28.10;21.00;;;;;;;;;;104141;1285;544761;-72
2024/03/13 08:15:40;;;;;;;25.20;17.80;;;;;;;;;;104105;1290;545537;-72
2024/03/13 08:19:18;;;;;;;27.90;19.70;;;;;;;;;;103760;1289;545566;-73
2024/03/13 08:22:55;;;;;;;27.40;19.50;;;;;;;;;;103730;1289;545031;-72
2024/03/13 08:26:34;;;;;;;30.10;20.60;;;;;;;;;;103718;1293;545021;-72
2024/03/13 08:30:12;;;;;;;26.40;19.50;;;;;;;;;;103756;1293;544984;-71
2024/03/13 08:33:47;;;;;;;26.50;19.50;;;;;;;;;;103535;1295;545366;-72
2024/03/13 08:37:27;;;;;;;26.50;18.70;;;;;;;;;;103603;1292;544985;-72
2024/03/13 08:41:02;;;;;;;26.50;19.80;;;;;;;;;;103843;1289;544848;-72
2024/03/13 08:44:39;;;;;;;26.80;20.60;;;;;;;;;;103716;1295;545585;-72
2024/03/13 08:48:17;;;;;;;28.40;20.30;;;;;;;;;;103649;1292;544974;-71
2024/03/13 08:51:54;;;;;;;26.40;19.00;;;;;;;;;;103718;1289;544793;-71
2024/03/13 08:55:35;;;;;;;26.90;20.10;;;;;;;;;;103552;1295;545046;-71
2024/03/13 08:59:11;;;;;;;26.40;19.70;;;;;;;;;;103817;1289;545936;-72
2024/03/13 09:02:48;;;;;;;27.70;19.30;;;;;;;;;;103779;1292;544985;-72
2024/03/13 09:06:24;;;;;;;26.60;19.70;;;;;;;;;;103516;1294;545286;-72
2024/03/13 09:09:58;;;;;;;27.10;19.30;;;;;;;;;;103863;1289;545272;-73
2024/03/13 09:13:40;;;;;;;25.50;18.90;;;;;;;;;;103777;1291;545925;-72
2024/03/13 09:17:19;;;;;;;26.50;19.80;;;;;;;;;;103605;1295;548476;-71
2024/03/13 09:20:55;;;;;;;24.70;19.10;;;;;;;;;;103600;1291;544839;-73
2024/03/13 09:24:32;;;;;;;24.00;18.70;;;;;;;;;;103830;1290;545332;-71
2024/03/13 09:28:11;;;;;;;28.80;20.80;;;;;;;;;;103843;1294;544911;-73
2024/03/13 09:31:47;;;;;;;26.60;19.50;;;;;;;;;;103699;1289;544791;-72
2024/03/13 09:35:24;;;;;;;27.70;20.50;;;;;;;;;;103782;1289;544763;-72
2024/03/13 09:39:04;;;;;;;28.80;21.00;;;;;;;;;;103835;1300;544975;-73
2024/03/13 09:42:39;;;;;;;25.90;20.00;;;;;;;;;;103805;1292;545422;-73
2024/03/13 09:46:16;;;;;;;24.60;19.10;;;;;;;;;;103721;1290;544977;-73
2024/03/13 09:49:55;;;;;;;25.70;19.10;;;;;;;;;;103774;1292;545413;-73
2024/03/13 09:53:32;;;;;;;26.90;19.40;;;;;;;;;;103695;1292;544704;-72
2024/03/13 09:57:12;;;;;;;23.90;18.50;;;;;;;;;;103737;1291;545974;-73
2024/03/13 10:00:45;;;;;;;29.60;19.10;;;;;;;;;;103762;1302;545446;-73
2024/03/13 10:04:24;;;;;;;24.20;18.50;;;;;;;;;;103729;1289;544868;-71
2024/03/13 10:08:03;;;;;;;34.20;20.60;;;;;;;;;;104474;1283;544900;-73
2024/03/13 10:11:42;;;;;;;27.90;19.10;;;;;;;;;;103979;1301;544793;-73
2024/03/13 10:15:17;;;;;;;28.00;19.20;;;;;;;;;;103722;1290;545176;-73
2024/03/13 10:18:55;;;;;;;27.90;18.20;;;;;;;;;;103770;1291;544836;-73
2024/03/13 10:22:27;;;;;;;24.30;17.50;;;;;;;;;;103788;1292;544758;-72
2024/03/13 10:26:07;;;;;;;15.60;12.10;;;;;;;;;;103918;1289;545483;-74
2024/03/13 10:29:53;;;;;;;17.10;11.90;;;;;;;;;;103488;1295;548115;-73
2024/03/13 10:33:29;;;;;;;19.00;14.60;;;;;;;;;;103697;1302;547991;-73
2024/03/13 10:37:03;;;;;;;16.40;12.40;;;;;;;;;;103688;1293;545958;-74
2024/03/13 10:40:40;;;;;;;16.40;12.30;;;;;;;;;;103465;1294;545690;-73
2024/03/13 10:44:15;;;;;;;19.00;14.10;;;;;;;;;;103797;1292;545009;-73
2024/03/13 10:47:53;;;;;;;14.70;11.60;;;;;;;;;;103705;1295;545382;-74
2024/03/13 10:51:30;;;;;;;15.80;11.90;;;;;;;;;;103703;1291;545010;-73
2024/03/13 10:55:08;;;;;;;17.30;12.80;;;;;;;;;;103799;1292;545376;-74
2024/03/13 10:58:47;;;;;;;20.60;14.90;;;;;;;;;;104282;1286;544997;-73
2024/03/13 11:02:23;;;;;;;17.60;14.40;;;;;;;;;;103815;1292;544822;-73
2024/03/13 11:05:57;;;;;;;20.10;15.40;;;;;;;;;;103895;1292;544906;-73
2024/03/13 11:09:38;;;;;;;19.80;14.90;;;;;;;;;;103904;1296;545438;-73
2024/03/13 11:13:16;;;;;;;20.70;17.20;;;;;;;;;;103765;1292;545045;-72
2024/03/13 11:16:56;;;;;;;23.40;17.20;;;;;;;;;;104364;1284;545986;-72
2024/03/13 11:20:37;;;;;;;21.00;15.80;;;;;;;;;;103888;1288;544836;-73
2024/03/13 11:24:09;;;;;;;20.30;15.80;;;;;;;;;;103879;1293;545009;-73
2024/03/13 11:27:55;;;;;;;19.40;15.60;;;;;;;;;;103762;1291;545056;-73
2024/03/13 11:31:23;;;;;;;22.80;17.70;;;;;;;;;;104525;1283;544765;-73
2024/03/13 11:35:01;;;;;;;19.80;15.50;;;;;;;;;;104079;1286;545442;-74
2024/03/13 11:38:38;;;;;;;22.60;17.10;;;;;;;;;;103584;1296;545924;-73
2024/03/13 11:42:20;;;;;;;25.60;19.30;;;;;;;;;;103867;1289;544977;-72
2024/03/13 11:45:52;;;;;;;20.50;15.50;;;;;;;;;;103766;1292;545350;-72
2024/03/13 11:49:31;;;;;;;24.10;17.60;;;;;;;;;;103614;1301;546247;-71
2024/03/13 11:53:14;;;;;;;23.30;17.10;;;;;;;;;;103772;1291;544893;-72
2024/03/13 11:56:46;;;;;;;20.30;15.40;;;;;;;;;;103816;1291;544808;-73
2024/03/13 12:00:22;;;;;;;24.70;17.40;;;;;;;;;;103509;1295;545286;-73
2024/03/13 12:04:05;;;;;;;22.40;17.30;;;;;;;;;;104248;1287;544958;-73
2024/03/13 12:07:40;;;;;;;25.20;18.00;;;;;;;;;;103754;1291;545095;-72
2024/03/13 12:11:25;;;;;;;31.20;20.50;;;;;;;;;;103772;1291;548098;-72
2024/03/13 12:14:52;;;;;;;24.30;15.60;;;;;;;;;;104281;1286;545186;-72
2024/03/13 12:18:30;;;;;;;19.00;14.30;;;;;;;;;;103746;1289;545048;-71
2024/03/13 12:22:10;;;;;;;18.60;15.30;;;;;;;;;;104473;1283;544994;-72
2024/03/13 12:25:45;;;;;;;19.10;14.50;;;;;;;;;;103799;1292;545249;-73
2024/03/13 12:29:23;;;;;;;19.90;14.90;;;;;;;;;;103728;1291;545165;-74
2024/03/13 12:32:57;;;;;;;28.60;20.10;;;;;;;;;;103945;1289;545195;-72
2024/03/13 12:36:43;;;;;;;33.00;22.10;;;;;;;;;;103790;1291;544866;-73
2024/03/13 12:40:16;;;;;;;37.60;26.80;;;;;;;;;;103686;1292;545082;-73
2024/03/13 12:43:52;;;;;;;24.00;18.10;;;;;;;;;;103922;1288;545362;-72
2024/03/13 12:47:30;;;;;;;22.90;16.90;;;;;;;;;;103738;1291;545284;-72
2024/03/13 12:51:08;;;;;;;23.90;16.90;;;;;;;;;;103838;1292;544896;-72
2024/03/13 12:54:45;;;;;;;19.20;15.50;;;;;;;;;;103739;1290;544731;-72
2024/03/13 12:58:25;;;;;;;21.20;16.10;;;;;;;;;;103803;1291;545586;-72
2024/03/13 13:02:02;;;;;;;19.60;14.60;;;;;;;;;;103629;1305;546049;-73
2024/03/13 13:05:37;;;;;;;19.30;15.30;;;;;;;;;;103817;1289;544784;-72
2024/03/13 13:09:14;;;;;;;21.10;15.20;;;;;;;;;;103767;1289;544911;-73
2024/03/13 13:12:55;;;;;;;23.00;15.60;;;;;;;;;;105080;1288;546312;-73
2024/03/13 13:16:29;;;;;;;19.90;15.60;;;;;;;;;;103857;1289;545253;-74
2024/03/13 13:20:09;;;;;;;24.30;19.40;;;;;;;;;;103515;1295;545717;-73
2024/03/13 13:23:49;;;;;;;18.00;13.80;;;;;;;;;;103411;1294;547787;-73
2024/03/13 13:27:21;;;;;;;17.50;13.90;;;;;;;;;;103787;1289;544840;-73
2024/03/13 13:30:59;;;;;;;18.00;13.30;;;;;;;;;;103738;1291;545000;-73
2024/03/13 13:34:45;;;;;;;16.90;12.40;;;;;;;;;;104062;1295;548062;-73
2024/03/13 13:38:14;;;;;;;16.00;12.80;;;;;;;;;;103591;1293;545193;-73
2024/03/13 13:41:51;;;;;;;17.30;13.20;;;;;;;;;;104219;1285;544964;-73
2024/03/13 13:45:29;;;;;;;16.90;12.60;;;;;;;;;;103719;1291;545046;-74
2024/03/13 13:49:07;;;;;;;18.90;14.20;;;;;;;;;;103799;1291;545740;-72
2024/03/13 13:52:41;;;;;;;25.50;20.00;;;;;;;;;;103899;1288;544808;-73
2024/03/13 13:56:21;;;;;;;17.10;14.20;;;;;;;;;;104157;1285;545013;-73
2024/03/13 13:59:57;;;;;;;19.00;13.90;;;;;;;;;;103963;1288;545308;-72
2024/03/13 14:03:37;;;;;;;18.40;13.50;;;;;;;;;;103542;1295;545753;-72
2024/03/13 14:07:13;;;;;;;19.10;14.90;;;;;;;;;;103742;1291;544801;-73
2024/03/13 14:10:54;;;;;;;21.40;16.90;;;;;;;;;;103775;1292;545079;-72
2024/03/13 14:14:24;;;;;;;18.90;14.80;;;;;;;;;;104631;1289;545254;-72
2024/03/13 14:18:09;;;;;;;23.20;17.40;;;;;;;;;;103735;1290;545244;-72
2024/03/13 14:21:43;;;;;;;20.30;16.40;;;;;;;;;;103773;1295;544953;-74
2024/03/13 14:25:21;;;;;;;23.00;17.30;;;;;;;;;;103956;1292;544980;-73
2024/03/13 14:28:58;;;;;;;21.80;17.10;;;;;;;;;;104605;1283;544993;-73
2024/03/13 14:32:36;;;;;;;20.60;16.50;;;;;;;;;;103685;1291;545421;-72
2024/03/13 14:36:14;;;;;;;22.20;16.90;;;;;;;;;;103479;1295;546481;-73
2024/03/13 14:40:14;;;;;;;;;;;;;;;;;;;;;
2024/03/13 14:43:28;;;;;;;22.10;17.20;;;;;;;;;;103684;1291;545484;-72
2024/03/13 14:47:08;;;;;;;35.30;25.80;;;;;;;;;;103784;1291;545572;-73
2024/03/13 14:50:39;;;;;;;45.00;30.10;;;;;;;;;;103811;1289;544900;-72
2024/03/13 14:54:21;;;;;;;30.10;21.40;;;;;;;;;;104102;1287;545014;-73
2024/03/13 14:57:58;;;;;;;33.10;24.30;;;;;;;;;;103726;1294;545446;-73
2024/03/13 15:01:43;;;;;;;27.10;20.40;;;;;;;;;;103797;1292;544889;-72
2024/03/13 15:05:12;;;;;;;26.60;20.00;;;;;;;;;;103907;1290;545295;-73
2024/03/13 15:08:50;;;;;;;34.10;24.60;;;;;;;;;;103745;1291;545164;-73
2024/03/13 15:12:28;;;;;;;36.10;24.20;;;;;;;;;;103850;1292;544937;-71
2024/03/13 15:16:08;;;;;;;31.90;23.60;;;;;;;;;;104005;1290;545085;-71
2024/03/13 15:19:43;;;;;;;27.90;21.60;;;;;;;;;;103845;1291;544714;-72
2024/03/13 15:23:21;;;;;;;28.10;21.40;;;;;;;;;;103672;1294;545056;-73
2024/03/13 15:26:58;;;;;;;31.70;21.20;;;;;;;;;;103931;1289;546336;-72
2024/03/13 15:30:36;;;;;;;29.90;20.60;;;;;;;;;;103832;1291;545954;-73
2024/03/13 15:34:12;;;;;;;29.10;19.30;;;;;;;;;;104685;1283;544816;-73
2024/03/13 15:37:53;;;;;;;26.50;18.90;;;;;;;;;;104051;1294;544769;-73
2024/03/13 15:41:28;;;;;;;23.50;18.20;;;;;;;;;;103701;1295;545024;-73
2024/03/13 15:45:20;;;;;;;;;;;;;;;;;;;;;
2024/03/13 15:48:43;;;;;;;34.80;21.20;;;;;;;;;;103814;1290;545007;-72
2024/03/13 15:52:18;;;;;;;30.20;20.60;;;;;;;;;;103764;1292;544786;-71
2024/03/13 15:55:57;;;;;;;29.70;20.10;;;;;;;;;;103794;1291;545117;-72
2024/03/13 15:59:34;;;;;;;26.50;18.90;;;;;;;;;;103582;1293;544868;-73
2024/03/13 16:03:13;;;;;;;27.50;19.80;;;;;;;;;;103757;1292;544855;-72
2024/03/13 16:06:53;;;;;;;32.10;22.20;;;;;;;;;;103744;1291;545069;-73
2024/03/13 16:10:32;;;;;;;36.20;22.30;;;;;;;;;;103888;1288;545981;-72
2024/03/13 16:14:05;;;;;;;30.30;21.80;;;;;;;;;;104344;1283;544984;-73
2024/03/13 16:17:44;;;;;;;28.40;20.20;;;;;;;;;;103547;1294;545426;-72
2024/03/13 16:21:19;;;;;;;28.20;20.30;;;;;;;;;;105616;1294;544998;-71
2024/03/13 16:24:53;;;;;;;28.20;20.70;;;;;;;;;;104054;1289;545056;-72
2024/03/13 16:28:34;;;;;;;28.90;22.10;;;;;;;;;;103806;1295;544712;-72
2024/03/13 16:32:17;;;;;;;30.00;20.60;;;;;;;;;;103563;1294;544997;-71
2024/03/13 16:35:57;;;;;;;29.60;21.30;;;;;;;;;;103735;1296;544946;-72
2024/03/13 16:39:27;;;;;;;31.30;22.50;;;;;;;;;;103570;1295;544939;-72
2024/03/13 16:43:04;;;;;;;43.50;25.20;;;;;;;;;;103913;1293;544981;-72
2024/03/13 16:46:42;;;;;;;50.60;28.20;;;;;;;;;;103777;1291;545991;-72
2024/03/13 16:50:15;;;;;;;46.60;27.00;;;;;;;;;;103957;1289;544734;-72
2024/03/13 16:53:57;;;;;;;61.70;31.20;;;;;;;;;;103752;1292;544963;-72
2024/03/13 16:57:34;;;;;;;60.70;29.00;;;;;;;;;;103856;1291;545196;-72
2024/03/13 17:01:11;;;;;;;57.70;29.80;;;;;;;;;;104131;1289;545431;-72
2024/03/13 17:04:49;;;;;;;62.20;29.40;;;;;;;;;;103737;1289;545025;-72
2024/03/13 17:08:41;;;;;;;;;;;;;;;;;;;;;
2024/03/13 17:12:04;;;;;;;37.20;21.60;;;;;;;;;;103858;1292;544696;-72
2024/03/13 17:15:41;;;;;;;30.00;19.70;;;;;;;;;;103703;1291;545423;-71
2024/03/13 17:19:21;;;;;;;29.70;19.70;;;;;;;;;;103924;1291;544771;-72
2024/03/13 17:23:03;;;;;;;27.00;20.30;;;;;;;;;;104114;1292;545688;-72
2024/03/13 17:26:35;;;;;;;31.60;22.50;;;;;;;;;;103700;1292;545395;-73
2024/03/13 17:30:28;;;;;;;36.10;23.50;;;;;;;;;;103572;1292;545584;-73
2024/03/13 17:33:51;;;;;;;33.10;24.00;;;;;;;;;;103610;1294;544853;-72
2024/03/13 17:37:27;;;;;;;45.20;29.60;;;;;;;;;;103903;1295;544946;-72
2024/03/13 17:41:05;;;;;;;52.80;33.80;;;;;;;;;;104538;1285;544964;-72
2024/03/13 17:44:42;;;;;;;61.00;38.00;;;;;;;;;;103885;1302;544754;-72
2024/03/13 17:48:19;;;;;;;59.40;36.40;;;;;;;;;;103716;1294;545818;-72
2024/03/13 17:51:57;;;;;;;55.80;34.60;;;;;;;;;;103578;1292;544881;-72
2024/03/13 17:55:33;;;;;;;54.90;35.30;;;;;;;;;;103744;1295;544747;-72
2024/03/13 17:59:13;;;;;;;61.40;38.50;;;;;;;;;;103817;1288;545023;-72
2024/03/13 18:02:49;;;;;;;71.90;44.40;;;;;;;;;;103638;1294;545611;-72
2024/03/13 18:06:46;;;;;;;87.20;52.70;;;;;;;;;;103773;1289;544932;-72
2024/03/13 18:10:12;;;;;;;88.10;55.40;;;;;;;;;;103744;1291;545022;-73
2024/03/13 18:14:02;;;;;;;82.70;54.30;;;;;;;;;;103735;1291;544770;-73
2024/03/13 18:17:18;;;;;;;81.50;53.70;;;;;;;;;;103737;1289;545965;-73
2024/03/13 18:20:56;;;;;;;80.00;50.90;;;;;;;;;;104473;1283;544998;-71
2024/03/13 18:24:35;;;;;;;74.00;48.20;;;;;;;;;;103870;1292;545476;-72
2024/03/13 18:28:35;;;;;;;71.90;47.10;;;;;;;;;;103487;1295;545003;-72
2024/03/13 18:31:56;;;;;;;93.40;54.40;;;;;;;;;;103754;1291;544903;-71
2024/03/13 18:35:26;;;;;;;91.00;53.40;;;;;;;;;;103853;1289;545360;-72
2024/03/13 18:39:06;;;;;;;76.40;46.60;;;;;;;;;;104234;1286;544735;-72
2024/03/13 18:42:45;;;;;;;66.20;43.50;;;;;;;;;;103763;1291;545427;-72
2024/03/13 18:46:19;;;;;;;56.00;38.40;;;;;;;;;;103720;1289;545511;-72
2024/03/13 18:49:58;;;;;;;60.10;42.70;;;;;;;;;;103557;1293;545053;-72
2024/03/13 18:53:38;;;;;;;57.80;40.30;;;;;;;;;;103683;1291;545240;-72
2024/03/13 18:57:10;;;;;;;60.30;39.90;;;;;;;;;;103806;1290;545693;-71
2024/03/13 19:00:50;;;;;;;59.70;41.90;;;;;;;;;;103772;1292;544807;-72
2024/03/13 19:04:26;;;;;;;79.30;46.50;;;;;;;;;;103723;1288;544814;-71
2024/03/13 19:08:03;;;;;;;109.20;54.30;;;;;;;;;;104045;1286;545749;-72
2024/03/13 19:11:41;;;;;;;234.00;87.60;;;;;;;;;;103843;1295;544744;-72
2024/03/13 19:15:18;;;;;;;115.20;52.70;;;;;;;;;;103777;1294;545654;-71
2024/03/13 19:18:56;;;;;;;68.10;39.60;;;;;;;;;;103752;1289;544773;-72
2024/03/13 19:22:33;;;;;;;60.70;39.40;;;;;;;;;;104069;1286;545379;-72
2024/03/13 19:26:13;;;;;;;56.90;38.40;;;;;;;;;;103508;1297;544822;-72
2024/03/13 19:29:47;;;;;;;56.20;38.80;;;;;;;;;;104875;1283;544816;-72
2024/03/13 19:33:25;;;;;;;58.40;39.90;;;;;;;;;;104137;1289;544725;-73
2024/03/13 19:37:02;;;;;;;55.20;39.00;;;;;;;;;;103803;1292;546133;-72
2024/03/13 19:40:40;;;;;;;57.40;40.40;;;;;;;;;;103824;1291;545074;-71
2024/03/13 19:44:21;;;;;;;56.60;37.80;;;;;;;;;;103758;1292;544839;-71
2024/03/13 19:47:51;;;;;;;97.80;50.80;;;;;;;;;;103851;1292;544969;-72
2024/03/13 19:51:40;;;;;;;76.40;47.20;;;;;;;;;;103735;1289;544838;-72
2024/03/13 19:55:20;;;;;;;65.50;43.00;;;;;;;;;;103943;1288;544939;-72
2024/03/13 19:58:43;;;;;;;59.30;40.50;;;;;;;;;;103978;1295;544872;-71
2024/03/13 20:03:07;;;;;;;63.80;41.90;;;;;;;;;;103830;1289;545504;-73
2024/03/13 20:06:08;;;;;;;62.10;43.10;;;;;;;;;;103794;1289;545000;-72
2024/03/13 20:09:41;;;;;;;69.80;44.90;;;;;;;;;;103863;1289;544776;-72
2024/03/13 20:13:17;;;;;;;65.10;43.90;;;;;;;;;;104082;1287;545566;-72
2024/03/13 20:16:55;;;;;;;65.50;41.30;;;;;;;;;;103776;1291;545020;-71
2024/03/13 20:20:34;;;;;;;57.80;39.10;;;;;;;;;;103888;1292;544974;-73
2024/03/13 20:24:06;;;;;;;59.40;39.20;;;;;;;;;;103855;1288;545784;-71
2024/03/13 20:27:47;;;;;;;60.30;39.60;;;;;;;;;;104058;1289;544760;-73
2024/03/13 20:31:46;;;;;;;59.90;40.30;;;;;;;;;;103753;1295;544997;-72
2024/03/13 20:35:03;;;;;;;69.70;45.40;;;;;;;;;;103796;1291;545061;-72
2024/03/13 20:38:41;;;;;;;76.70;45.50;;;;;;;;;;103694;1294;544854;-72
2024/03/13 20:42:17;;;;;;;68.50;42.70;;;;;;;;;;104340;1285;545829;-71
2024/03/13 20:45:54;;;;;;;68.00;42.00;;;;;;;;;;103954;1288;545512;-72
2024/03/13 20:49:32;;;;;;;55.10;36.30;;;;;;;;;;103793;1294;545101;-73
2024/03/13 20:53:15;;;;;;;56.70;37.50;;;;;;;;;;103827;1290;545063;-72
2024/03/13 20:56:50;;;;;;;57.20;37.30;;;;;;;;;;103783;1291;545792;-72